sensor_id;sensor_type;location;lat;lon;timestamp;P1;durP1;ratioP1;P2;durP2;ratioP2
31764;SDS011;18338;53.240;8.798;2023-07-09T00:00:47;4.60;;;4.20;;
31764;SDS011;18338;53.240;8.798;2023-07-09T00:03:15;5.20;;;4.70;;
31764;SDS011;18338;53.240;8.798;2023-07-09T00:05:46;5.32;;;4.82;;
31764;SDS011;18338;53.240;8.798;2023-07-09T00:11:09;4.90;;;4.30;;
31764;SDS011;18338;53.240;8.798;2023-07-09T00:13:36;5.22;;;4.45;;
31764;SDS011;18338;53.240;8.798;2023-07-09T00:16:11;5.28;;;4.78;;
31764;SDS011;18338;53.240;8.798;2023-07-09T00:18:43;6.18;;;4.32;;
31764;SDS011;18338;53.240;8.798;2023-07-09T00:21:10;5.03;;;4.53;;
31764;SDS011;18338;53.240;8.798;2023-07-09T00:23:36;5.20;;;4.70;;
31764;SDS011;18338;53.240;8.798;2023-07-09T00:26:11;5.07;;;4.57;;
31764;SDS011;18338;53.240;8.798;2023-07-09T00:28:40;5.07;;;4.65;;
31764;SDS011;18338;53.240;8.798;2023-07-09T00:31:14;5.10;;;4.60;;
31764;SDS011;18338;53.240;8.798;2023-07-09T00:33:42;6.68;;;4.95;;
31764;SDS011;18338;53.240;8.798;2023-07-09T00:36:16;6.70;;;4.82;;
31764;SDS011;18338;53.240;8.798;2023-07-09T00:38:51;5.20;;;4.70;;
31764;SDS011;18338;53.240;8.798;2023-07-09T00:41:18;7.05;;;5.10;;
31764;SDS011;18338;53.240;8.798;2023-07-09T00:43:48;5.03;;;4.63;;
31764;SDS011;18338;53.240;8.798;2023-07-09T00:48:47;5.57;;;5.07;;
31764;SDS011;18338;53.240;8.798;2023-07-09T00:51:23;5.63;;;4.75;;
31764;SDS011;18338;53.240;8.798;2023-07-09T00:53:54;6.70;;;4.80;;
31764;SDS011;18338;53.240;8.798;2023-07-09T00:56:29;5.30;;;4.80;;
31764;SDS011;18338;53.240;8.798;2023-07-09T00:59:05;5.80;;;4.80;;
31764;SDS011;18338;53.240;8.798;2023-07-09T01:01:37;5.70;;;4.68;;
31764;SDS011;18338;53.240;8.798;2023-07-09T01:04:07;6.15;;;4.97;;
31764;SDS011;18338;53.240;8.798;2023-07-09T01:06:37;7.57;;;5.00;;
31764;SDS011;18338;53.240;8.798;2023-07-09T01:09:09;6.93;;;5.47;;
31764;SDS011;18338;53.240;8.798;2023-07-09T01:11:36;5.20;;;4.78;;
31764;SDS011;18338;53.240;8.798;2023-07-09T01:14:05;7.05;;;4.85;;
31764;SDS011;18338;53.240;8.798;2023-07-09T01:16:36;5.70;;;5.10;;
31764;SDS011;18338;53.240;8.798;2023-07-09T01:19:05;6.10;;;4.97;;
31764;SDS011;18338;53.240;8.798;2023-07-09T01:21:32;5.78;;;5.13;;
31764;SDS011;18338;53.240;8.798;2023-07-09T01:23:59;6.32;;;5.47;;
31764;SDS011;18338;53.240;8.798;2023-07-09T01:26:41;5.32;;;4.72;;
31764;SDS011;18338;53.240;8.798;2023-07-09T01:29:10;5.57;;;5.07;;
31764;SDS011;18338;53.240;8.798;2023-07-09T01:31:36;4.97;;;4.57;;
31764;SDS011;18338;53.240;8.798;2023-07-09T01:34:03;5.13;;;4.72;;
31764;SDS011;18338;53.240;8.798;2023-07-09T01:36:31;5.90;;;5.30;;
31764;SDS011;18338;53.240;8.798;2023-07-09T01:38:58;6.93;;;5.75;;
31764;SDS011;18338;53.240;8.798;2023-07-09T01:41:26;6.07;;;5.57;;
31764;SDS011;18338;53.240;8.798;2023-07-09T01:43:53;5.80;;;5.30;;
31764;SDS011;18338;53.240;8.798;2023-07-09T01:46:20;5.93;;;5.32;;
31764;SDS011;18338;53.240;8.798;2023-07-09T01:48:47;5.55;;;5.05;;
31764;SDS011;18338;53.240;8.798;2023-07-09T01:51:16;5.70;;;5.20;;
31764;SDS011;18338;53.240;8.798;2023-07-09T01:53:43;6.32;;;5.32;;
31764;SDS011;18338;53.240;8.798;2023-07-09T01:56:10;5.97;;;5.35;;
31764;SDS011;18338;53.240;8.798;2023-07-09T01:58:37;6.45;;;5.07;;
31764;SDS011;18338;53.240;8.798;2023-07-09T02:01:08;5.93;;;5.43;;
31764;SDS011;18338;53.240;8.798;2023-07-09T02:03:36;5.95;;;5.45;;
31764;SDS011;18338;53.240;8.798;2023-07-09T02:06:03;5.70;;;5.30;;
31764;SDS011;18338;53.240;8.798;2023-07-09T02:08:36;5.57;;;5.07;;
31764;SDS011;18338;53.240;8.798;2023-07-09T02:11:03;5.68;;;5.18;;
31764;SDS011;18338;53.240;8.798;2023-07-09T02:13:30;6.10;;;5.38;;
31764;SDS011;18338;53.240;8.798;2023-07-09T02:15:57;6.45;;;5.85;;
31764;SDS011;18338;53.240;8.798;2023-07-09T02:18:24;5.78;;;5.28;;
31764;SDS011;18338;53.240;8.798;2023-07-09T02:20:51;6.13;;;5.35;;
31764;SDS011;18338;53.240;8.798;2023-07-09T02:23:18;5.45;;;5.05;;
31764;SDS011;18338;53.240;8.798;2023-07-09T02:25:45;6.10;;;5.53;;
31764;SDS011;18338;53.240;8.798;2023-07-09T02:28:12;5.78;;;5.28;;
31764;SDS011;18338;53.240;8.798;2023-07-09T02:30:39;6.60;;;5.93;;
31764;SDS011;18338;53.240;8.798;2023-07-09T02:33:05;7.20;;;6.40;;
31764;SDS011;18338;53.240;8.798;2023-07-09T02:35:32;5.93;;;5.43;;
31764;SDS011;18338;53.240;8.798;2023-07-09T02:38:00;6.93;;;6.22;;
31764;SDS011;18338;53.240;8.798;2023-07-09T02:40:27;6.85;;;6.15;;
31764;SDS011;18338;53.240;8.798;2023-07-09T02:42:54;5.97;;;5.43;;
31764;SDS011;18338;53.240;8.798;2023-07-09T02:45:20;6.50;;;5.90;;
31764;SDS011;18338;53.240;8.798;2023-07-09T02:47:47;7.22;;;6.63;;
31764;SDS011;18338;53.240;8.798;2023-07-09T02:50:15;7.55;;;6.75;;
31764;SDS011;18338;53.240;8.798;2023-07-09T02:52:42;6.18;;;5.65;;
31764;SDS011;18338;53.240;8.798;2023-07-09T02:55:09;6.93;;;6.22;;
31764;SDS011;18338;53.240;8.798;2023-07-09T02:57:35;6.72;;;6.22;;
31764;SDS011;18338;53.240;8.798;2023-07-09T03:00:02;6.40;;;5.88;;
31764;SDS011;18338;53.240;8.798;2023-07-09T03:02:31;7.07;;;6.38;;
31764;SDS011;18338;53.240;8.798;2023-07-09T03:04:58;6.97;;;6.38;;
31764;SDS011;18338;53.240;8.798;2023-07-09T03:07:25;6.85;;;6.25;;
31764;SDS011;18338;53.240;8.798;2023-07-09T03:09:52;7.22;;;6.50;;
31764;SDS011;18338;53.240;8.798;2023-07-09T03:12:19;7.85;;;6.70;;
31764;SDS011;18338;53.240;8.798;2023-07-09T03:14:48;6.63;;;6.03;;
31764;SDS011;18338;53.240;8.798;2023-07-09T03:17:39;6.68;;;6.07;;
31764;SDS011;18338;53.240;8.798;2023-07-09T03:20:06;8.50;;;6.05;;
31764;SDS011;18338;53.240;8.798;2023-07-09T03:22:34;7.38;;;6.78;;
31764;SDS011;18338;53.240;8.798;2023-07-09T03:25:00;6.70;;;6.20;;
31764;SDS011;18338;53.240;8.798;2023-07-09T03:27:27;6.70;;;6.20;;
31764;SDS011;18338;53.240;8.798;2023-07-09T03:29:54;7.15;;;6.45;;
31764;SDS011;18338;53.240;8.798;2023-07-09T03:32:20;7.10;;;6.40;;
31764;SDS011;18338;53.240;8.798;2023-07-09T03:34:47;6.70;;;6.10;;
31764;SDS011;18338;53.240;8.798;2023-07-09T03:37:14;7.80;;;6.55;;
31764;SDS011;18338;53.240;8.798;2023-07-09T03:39:41;6.38;;;5.78;;
31764;SDS011;18338;53.240;8.798;2023-07-09T03:42:08;6.45;;;5.95;;
31764;SDS011;18338;53.240;8.798;2023-07-09T03:44:37;6.95;;;6.35;;
31764;SDS011;18338;53.240;8.798;2023-07-09T03:47:04;7.15;;;6.38;;
31764;SDS011;18338;53.240;8.798;2023-07-09T03:49:31;7.30;;;6.60;;
31764;SDS011;18338;53.240;8.798;2023-07-09T03:51:58;6.55;;;5.95;;
31764;SDS011;18338;53.240;8.798;2023-07-09T03:54:25;6.82;;;6.10;;
31764;SDS011;18338;53.240;8.798;2023-07-09T03:56:53;6.82;;;6.22;;
31764;SDS011;18338;53.240;8.798;2023-07-09T03:59:19;6.53;;;5.95;;
31764;SDS011;18338;53.240;8.798;2023-07-09T04:01:46;6.72;;;6.10;;
31764;SDS011;18338;53.240;8.798;2023-07-09T04:04:13;7.10;;;6.30;;
31764;SDS011;18338;53.240;8.798;2023-07-09T04:06:39;7.15;;;6.40;;
31764;SDS011;18338;53.240;8.798;2023-07-09T04:09:06;6.50;;;6.00;;
31764;SDS011;18338;53.240;8.798;2023-07-09T04:11:33;8.35;;;6.72;;
31764;SDS011;18338;53.240;8.798;2023-07-09T04:14:00;6.80;;;5.78;;
31764;SDS011;18338;53.240;8.798;2023-07-09T04:16:27;6.22;;;5.63;;
31764;SDS011;18338;53.240;8.798;2023-07-09T04:18:53;6.32;;;5.82;;
31764;SDS011;18338;53.240;8.798;2023-07-09T04:21:20;7.13;;;6.50;;
31764;SDS011;18338;53.240;8.798;2023-07-09T04:23:47;6.78;;;6.07;;
31764;SDS011;18338;53.240;8.798;2023-07-09T04:26:15;6.15;;;5.75;;
31764;SDS011;18338;53.240;8.798;2023-07-09T04:28:42;6.63;;;5.85;;
31764;SDS011;18338;53.240;8.798;2023-07-09T04:31:09;7.47;;;6.70;;
31764;SDS011;18338;53.240;8.798;2023-07-09T04:33:36;6.15;;;5.50;;
31764;SDS011;18338;53.240;8.798;2023-07-09T04:36:02;6.30;;;5.80;;
31764;SDS011;18338;53.240;8.798;2023-07-09T04:38:32;6.45;;;5.90;;
31764;SDS011;18338;53.240;8.798;2023-07-09T04:40:59;6.13;;;5.53;;
31764;SDS011;18338;53.240;8.798;2023-07-09T04:43:26;6.32;;;5.72;;
31764;SDS011;18338;53.240;8.798;2023-07-09T04:45:53;6.93;;;5.85;;
31764;SDS011;18338;53.240;8.798;2023-07-09T04:48:19;8.13;;;5.47;;
31764;SDS011;18338;53.240;8.798;2023-07-09T04:50:46;7.75;;;5.95;;
31764;SDS011;18338;53.240;8.798;2023-07-09T04:53:16;6.53;;;5.93;;
31764;SDS011;18338;53.240;8.798;2023-07-09T04:55:43;6.43;;;5.93;;
31764;SDS011;18338;53.240;8.798;2023-07-09T04:58:10;6.13;;;5.60;;
31764;SDS011;18338;53.240;8.798;2023-07-09T05:00:36;6.03;;;5.53;;
31764;SDS011;18338;53.240;8.798;2023-07-09T05:03:03;6.40;;;5.80;;
31764;SDS011;18338;53.240;8.798;2023-07-09T05:05:30;6.30;;;5.70;;
31764;SDS011;18338;53.240;8.798;2023-07-09T05:07:56;6.10;;;5.57;;
31764;SDS011;18338;53.240;8.798;2023-07-09T05:10:23;6.07;;;5.50;;
31764;SDS011;18338;53.240;8.798;2023-07-09T05:12:50;6.35;;;5.78;;
31764;SDS011;18338;53.240;8.798;2023-07-09T05:15:19;6.57;;;6.03;;
31764;SDS011;18338;53.240;8.798;2023-07-09T05:17:47;6.50;;;5.90;;
31764;SDS011;18338;53.240;8.798;2023-07-09T05:20:14;6.00;;;5.50;;
31764;SDS011;18338;53.240;8.798;2023-07-09T05:22:41;5.57;;;5.18;;
31764;SDS011;18338;53.240;8.798;2023-07-09T05:25:08;6.15;;;5.65;;
31764;SDS011;18338;53.240;8.798;2023-07-09T05:27:35;6.15;;;5.60;;
31764;SDS011;18338;53.240;8.798;2023-07-09T05:30:01;6.28;;;5.70;;
31764;SDS011;18338;53.240;8.798;2023-07-09T05:32:28;6.10;;;5.60;;
31764;SDS011;18338;53.240;8.798;2023-07-09T05:34:55;6.47;;;5.90;;
31764;SDS011;18338;53.240;8.798;2023-07-09T05:37:22;6.00;;;5.50;;
31764;SDS011;18338;53.240;8.798;2023-07-09T05:39:48;6.20;;;5.70;;
31764;SDS011;18338;53.240;8.798;2023-07-09T05:42:15;5.80;;;5.30;;
31764;SDS011;18338;53.240;8.798;2023-07-09T05:44:42;5.97;;;5.57;;
31764;SDS011;18338;53.240;8.798;2023-07-09T05:47:08;5.72;;;5.20;;
31764;SDS011;18338;53.240;8.798;2023-07-09T05:49:35;5.43;;;5.03;;
31764;SDS011;18338;53.240;8.798;2023-07-09T05:52:04;6.13;;;5.65;;
31764;SDS011;18338;53.240;8.798;2023-07-09T05:54:31;5.90;;;5.30;;
31764;SDS011;18338;53.240;8.798;2023-07-09T05:56:58;5.68;;;5.13;;
31764;SDS011;18338;53.240;8.798;2023-07-09T05:59:25;5.65;;;5.15;;
31764;SDS011;18338;53.240;8.798;2023-07-09T06:01:51;5.55;;;5.05;;
31764;SDS011;18338;53.240;8.798;2023-07-09T06:04:18;5.25;;;4.80;;
31764;SDS011;18338;53.240;8.798;2023-07-09T06:06:45;6.95;;;4.93;;
31764;SDS011;18338;53.240;8.798;2023-07-09T06:09:13;6.07;;;5.20;;
31764;SDS011;18338;53.240;8.798;2023-07-09T06:11:41;6.72;;;5.10;;
31764;SDS011;18338;53.240;8.798;2023-07-09T06:14:08;5.15;;;4.65;;
31764;SDS011;18338;53.240;8.798;2023-07-09T06:16:35;5.35;;;4.88;;
31764;SDS011;18338;53.240;8.798;2023-07-09T06:19:03;5.70;;;5.10;;
31764;SDS011;18338;53.240;8.798;2023-07-09T06:21:30;5.47;;;4.97;;
31764;SDS011;18338;53.240;8.798;2023-07-09T06:23:57;6.00;;;5.10;;
31764;SDS011;18338;53.240;8.798;2023-07-09T06:26:23;5.63;;;5.00;;
31764;SDS011;18338;53.240;8.798;2023-07-09T06:28:51;5.15;;;4.75;;
31764;SDS011;18338;53.240;8.798;2023-07-09T06:31:17;5.03;;;4.53;;
31764;SDS011;18338;53.240;8.798;2023-07-09T06:33:47;5.35;;;4.55;;
31764;SDS011;18338;53.240;8.798;2023-07-09T06:36:14;4.78;;;4.47;;
31764;SDS011;18338;53.240;8.798;2023-07-09T06:38:42;5.13;;;4.65;;
31764;SDS011;18338;53.240;8.798;2023-07-09T06:41:08;4.38;;;3.97;;
31764;SDS011;18338;53.240;8.798;2023-07-09T06:43:35;6.05;;;5.03;;
31764;SDS011;18338;53.240;8.798;2023-07-09T06:46:06;6.47;;;5.10;;
31764;SDS011;18338;53.240;8.798;2023-07-09T06:48:37;4.65;;;4.25;;
31764;SDS011;18338;53.240;8.798;2023-07-09T06:51:04;5.65;;;5.10;;
31764;SDS011;18338;53.240;8.798;2023-07-09T06:53:30;4.93;;;4.40;;
31764;SDS011;18338;53.240;8.798;2023-07-09T06:55:57;6.70;;;5.20;;
31764;SDS011;18338;53.240;8.798;2023-07-09T06:58:28;4.72;;;4.43;;
31764;SDS011;18338;53.240;8.798;2023-07-09T07:00:58;4.80;;;4.28;;
31764;SDS011;18338;53.240;8.798;2023-07-09T07:03:30;5.00;;;4.50;;
31764;SDS011;18338;53.240;8.798;2023-07-09T07:05:58;4.72;;;4.35;;
31764;SDS011;18338;53.240;8.798;2023-07-09T07:08:26;4.75;;;4.40;;
31764;SDS011;18338;53.240;8.798;2023-07-09T07:11:00;4.80;;;4.38;;
31764;SDS011;18338;53.240;8.798;2023-07-09T07:13:29;5.63;;;4.93;;
31764;SDS011;18338;53.240;8.798;2023-07-09T07:15:57;5.20;;;4.80;;
31764;SDS011;18338;53.240;8.798;2023-07-09T07:18:24;4.80;;;4.40;;
31764;SDS011;18338;53.240;8.798;2023-07-09T07:20:51;5.05;;;4.63;;
31764;SDS011;18338;53.240;8.798;2023-07-09T07:23:18;4.43;;;4.10;;
31764;SDS011;18338;53.240;8.798;2023-07-09T07:25:46;5.88;;;4.60;;
31764;SDS011;18338;53.240;8.798;2023-07-09T07:28:13;4.97;;;4.57;;
31764;SDS011;18338;53.240;8.798;2023-07-09T07:30:39;5.93;;;4.35;;
31764;SDS011;18338;53.240;8.798;2023-07-09T07:33:06;5.95;;;4.78;;
31764;SDS011;18338;53.240;8.798;2023-07-09T07:35:33;5.05;;;4.55;;
31764;SDS011;18338;53.240;8.798;2023-07-09T07:37:59;5.10;;;4.60;;
31764;SDS011;18338;53.240;8.798;2023-07-09T07:40:26;5.75;;;4.80;;
31764;SDS011;18338;53.240;8.798;2023-07-09T07:42:53;4.60;;;4.30;;
31764;SDS011;18338;53.240;8.798;2023-07-09T07:45:20;8.45;;;4.50;;
31764;SDS011;18338;53.240;8.798;2023-07-09T07:47:47;4.88;;;4.45;;
31764;SDS011;18338;53.240;8.798;2023-07-09T07:50:14;4.82;;;4.28;;
31764;SDS011;18338;53.240;8.798;2023-07-09T07:52:40;4.90;;;4.50;;
31764;SDS011;18338;53.240;8.798;2023-07-09T07:55:07;5.13;;;4.72;;
31764;SDS011;18338;53.240;8.798;2023-07-09T07:57:38;5.25;;;4.63;;
31764;SDS011;18338;53.240;8.798;2023-07-09T08:00:05;5.03;;;4.47;;
31764;SDS011;18338;53.240;8.798;2023-07-09T08:02:32;4.80;;;4.50;;
31764;SDS011;18338;53.240;8.798;2023-07-09T08:04:59;4.82;;;4.30;;
31764;SDS011;18338;53.240;8.798;2023-07-09T08:07:26;5.38;;;4.47;;
31764;SDS011;18338;53.240;8.798;2023-07-09T08:09:52;5.10;;;4.68;;
31764;SDS011;18338;53.240;8.798;2023-07-09T08:12:19;6.30;;;4.43;;
31764;SDS011;18338;53.240;8.798;2023-07-09T08:14:46;4.80;;;4.25;;
31764;SDS011;18338;53.240;8.798;2023-07-09T08:17:12;4.72;;;4.22;;
31764;SDS011;18338;53.240;8.798;2023-07-09T08:19:50;5.43;;;4.45;;
31764;SDS011;18338;53.240;8.798;2023-07-09T08:22:21;4.88;;;4.47;;
31764;SDS011;18338;53.240;8.798;2023-07-09T08:24:48;5.10;;;4.70;;
31764;SDS011;18338;53.240;8.798;2023-07-09T08:27:16;4.78;;;4.38;;
31764;SDS011;18338;53.240;8.798;2023-07-09T08:29:43;4.93;;;4.45;;
31764;SDS011;18338;53.240;8.798;2023-07-09T08:32:11;5.05;;;4.65;;
31764;SDS011;18338;53.240;8.798;2023-07-09T08:34:38;4.68;;;4.15;;
31764;SDS011;18338;53.240;8.798;2023-07-09T08:37:19;5.00;;;4.35;;
31764;SDS011;18338;53.240;8.798;2023-07-09T08:39:46;4.88;;;4.47;;
31764;SDS011;18338;53.240;8.798;2023-07-09T08:42:17;5.28;;;4.60;;
31764;SDS011;18338;53.240;8.798;2023-07-09T08:44:57;4.57;;;4.18;;
31764;SDS011;18338;53.240;8.798;2023-07-09T08:50:24;4.70;;;4.25;;
31764;SDS011;18338;53.240;8.798;2023-07-09T08:53:00;5.00;;;4.50;;
31764;SDS011;18338;53.240;8.798;2023-07-09T08:55:28;4.82;;;4.47;;
31764;SDS011;18338;53.240;8.798;2023-07-09T08:57:57;5.05;;;4.60;;
31764;SDS011;18338;53.240;8.798;2023-07-09T09:02:59;5.30;;;4.80;;
31764;SDS011;18338;53.240;8.798;2023-07-09T09:05:45;4.93;;;4.60;;
31764;SDS011;18338;53.240;8.798;2023-07-09T09:11:20;4.88;;;4.47;;
31764;SDS011;18338;53.240;8.798;2023-07-09T09:13:58;5.20;;;4.72;;
31764;SDS011;18338;53.240;8.798;2023-07-09T09:16:31;5.32;;;4.70;;
31764;SDS011;18338;53.240;8.798;2023-07-09T09:19:02;4.65;;;4.22;;
31764;SDS011;18338;53.240;8.798;2023-07-09T09:21:38;5.20;;;4.80;;
31764;SDS011;18338;53.240;8.798;2023-07-09T09:24:16;5.15;;;4.65;;
31764;SDS011;18338;53.240;8.798;2023-07-09T09:26:48;4.97;;;4.57;;
31764;SDS011;18338;53.240;8.798;2023-07-09T09:29:17;5.28;;;4.18;;
31764;SDS011;18338;53.240;8.798;2023-07-09T09:31:45;5.63;;;4.82;;
31764;SDS011;18338;53.240;8.798;2023-07-09T09:34:17;5.30;;;4.78;;
31764;SDS011;18338;53.240;8.798;2023-07-09T09:36:45;5.45;;;4.90;;
31764;SDS011;18338;53.240;8.798;2023-07-09T09:39:12;4.95;;;4.50;;
31764;SDS011;18338;53.240;8.798;2023-07-09T09:41:39;5.32;;;4.82;;
31764;SDS011;18338;53.240;8.798;2023-07-09T09:44:14;4.90;;;4.50;;
31764;SDS011;18338;53.240;8.798;2023-07-09T09:46:44;4.90;;;4.60;;
31764;SDS011;18338;53.240;8.798;2023-07-09T09:49:11;4.80;;;4.45;;
31764;SDS011;18338;53.240;8.798;2023-07-09T09:51:40;4.75;;;4.45;;
31764;SDS011;18338;53.240;8.798;2023-07-09T09:54:12;4.90;;;4.43;;
31764;SDS011;18338;53.240;8.798;2023-07-09T09:56:47;4.78;;;4.40;;
31764;SDS011;18338;53.240;8.798;2023-07-09T09:59:19;5.95;;;4.45;;
31764;SDS011;18338;53.240;8.798;2023-07-09T10:01:57;4.20;;;3.90;;
31764;SDS011;18338;53.240;8.798;2023-07-09T10:04:29;4.82;;;4.45;;
31764;SDS011;18338;53.240;8.798;2023-07-09T10:06:56;4.50;;;4.20;;
31764;SDS011;18338;53.240;8.798;2023-07-09T10:09:52;4.55;;;4.25;;
31764;SDS011;18338;53.240;8.798;2023-07-09T10:15:17;4.75;;;4.32;;
31764;SDS011;18338;53.240;8.798;2023-07-09T10:18:00;5.05;;;4.55;;
31764;SDS011;18338;53.240;8.798;2023-07-09T10:20:37;5.15;;;4.72;;
31764;SDS011;18338;53.240;8.798;2023-07-09T10:23:21;4.70;;;4.40;;
31764;SDS011;18338;53.240;8.798;2023-07-09T10:26:03;5.28;;;4.97;;
31764;SDS011;18338;53.240;8.798;2023-07-09T10:34:24;5.30;;;4.80;;
31764;SDS011;18338;53.240;8.798;2023-07-09T10:37:04;5.47;;;4.13;;
31764;SDS011;18338;53.240;8.798;2023-07-09T10:39:47;4.90;;;4.60;;
31764;SDS011;18338;53.240;8.798;2023-07-09T10:42:20;5.38;;;4.88;;
31764;SDS011;18338;53.240;8.798;2023-07-09T10:45:02;6.07;;;4.43;;
31764;SDS011;18338;53.240;8.798;2023-07-09T10:47:38;5.05;;;4.65;;
31764;SDS011;18338;53.240;8.798;2023-07-09T10:50:14;5.10;;;4.63;;
31764;SDS011;18338;53.240;8.798;2023-07-09T10:52:47;4.82;;;4.53;;
31764;SDS011;18338;53.240;8.798;2023-07-09T10:55:22;4.88;;;4.57;;
31764;SDS011;18338;53.240;8.798;2023-07-09T11:00:37;5.53;;;4.60;;
31764;SDS011;18338;53.240;8.798;2023-07-09T11:03:16;4.68;;;4.28;;
31764;SDS011;18338;53.240;8.798;2023-07-09T11:05:44;5.20;;;4.80;;
31764;SDS011;18338;53.240;8.798;2023-07-09T11:08:13;5.05;;;4.55;;
31764;SDS011;18338;53.240;8.798;2023-07-09T11:10:49;5.18;;;4.70;;
31764;SDS011;18338;53.240;8.798;2023-07-09T11:13:34;4.57;;;4.28;;
31764;SDS011;18338;53.240;8.798;2023-07-09T11:16:37;4.57;;;4.25;;
31764;SDS011;18338;53.240;8.798;2023-07-09T11:19:13;4.57;;;4.28;;
31764;SDS011;18338;53.240;8.798;2023-07-09T11:22:04;5.63;;;5.13;;
31764;SDS011;18338;53.240;8.798;2023-07-09T11:24:43;4.95;;;4.65;;
31764;SDS011;18338;53.240;8.798;2023-07-09T11:29:57;4.88;;;4.20;;
31764;SDS011;18338;53.240;8.798;2023-07-09T11:32:26;7.45;;;4.20;;
31764;SDS011;18338;53.240;8.798;2023-07-09T11:35:05;4.85;;;4.47;;
31764;SDS011;18338;53.240;8.798;2023-07-09T11:37:43;4.70;;;4.18;;
31764;SDS011;18338;53.240;8.798;2023-07-09T11:40:11;4.50;;;4.20;;
31764;SDS011;18338;53.240;8.798;2023-07-09T11:42:47;4.55;;;4.25;;
31764;SDS011;18338;53.240;8.798;2023-07-09T11:45:17;4.57;;;4.28;;
31764;SDS011;18338;53.240;8.798;2023-07-09T11:47:57;4.75;;;3.92;;
31764;SDS011;18338;53.240;8.798;2023-07-09T11:50:46;4.78;;;4.47;;
31764;SDS011;18338;53.240;8.798;2023-07-09T11:53:25;4.20;;;3.90;;
31764;SDS011;18338;53.240;8.798;2023-07-09T11:56:04;5.07;;;4.57;;
31764;SDS011;18338;53.240;8.798;2023-07-09T11:58:33;4.97;;;4.43;;
31764;SDS011;18338;53.240;8.798;2023-07-09T12:01:00;4.75;;;4.35;;
31764;SDS011;18338;53.240;8.798;2023-07-09T12:03:33;4.47;;;4.18;;
31764;SDS011;18338;53.240;8.798;2023-07-09T12:06:16;4.15;;;3.92;;
31764;SDS011;18338;53.240;8.798;2023-07-09T12:08:48;4.10;;;3.70;;
31764;SDS011;18338;53.240;8.798;2023-07-09T12:11:18;4.85;;;4.35;;
31764;SDS011;18338;53.240;8.798;2023-07-09T12:13:45;5.15;;;4.65;;
31764;SDS011;18338;53.240;8.798;2023-07-09T12:16:23;5.25;;;4.72;;
31764;SDS011;18338;53.240;8.798;2023-07-09T12:18:53;4.47;;;4.13;;
31764;SDS011;18338;53.240;8.798;2023-07-09T12:21:21;4.75;;;4.45;;
31764;SDS011;18338;53.240;8.798;2023-07-09T12:23:49;4.57;;;4.18;;
31764;SDS011;18338;53.240;8.798;2023-07-09T12:26:18;4.85;;;4.10;;
31764;SDS011;18338;53.240;8.798;2023-07-09T12:28:52;4.78;;;4.38;;
31764;SDS011;18338;53.240;8.798;2023-07-09T12:31:27;5.03;;;4.65;;
31764;SDS011;18338;53.240;8.798;2023-07-09T12:33:57;4.70;;;4.40;;
31764;SDS011;18338;53.240;8.798;2023-07-09T12:36:26;4.38;;;4.07;;
31764;SDS011;18338;53.240;8.798;2023-07-09T12:38:59;4.53;;;4.22;;
31764;SDS011;18338;53.240;8.798;2023-07-09T12:41:36;4.70;;;4.40;;
31764;SDS011;18338;53.240;8.798;2023-07-09T12:44:05;4.90;;;4.50;;
31764;SDS011;18338;53.240;8.798;2023-07-09T12:46:39;4.30;;;3.90;;
31764;SDS011;18338;53.240;8.798;2023-07-09T12:49:13;4.65;;;4.35;;
31764;SDS011;18338;53.240;8.798;2023-07-09T12:51:46;5.13;;;4.57;;
31764;SDS011;18338;53.240;8.798;2023-07-09T12:54:13;5.60;;;4.68;;
31764;SDS011;18338;53.240;8.798;2023-07-09T12:56:43;5.50;;;5.07;;
31764;SDS011;18338;53.240;8.798;2023-07-09T12:59:17;5.38;;;4.97;;
31764;SDS011;18338;53.240;8.798;2023-07-09T13:01:48;5.00;;;4.65;;
31764;SDS011;18338;53.240;8.798;2023-07-09T13:04:32;4.93;;;4.63;;
31764;SDS011;18338;53.240;8.798;2023-07-09T13:07:02;4.80;;;4.50;;
31764;SDS011;18338;53.240;8.798;2023-07-09T13:09:30;4.72;;;4.32;;
31764;SDS011;18338;53.240;8.798;2023-07-09T13:11:57;4.78;;;4.38;;
31764;SDS011;18338;53.240;8.798;2023-07-09T13:14:32;5.13;;;4.63;;
31764;SDS011;18338;53.240;8.798;2023-07-09T13:17:05;5.43;;;4.82;;
31764;SDS011;18338;53.240;8.798;2023-07-09T13:19:33;5.05;;;4.65;;
31764;SDS011;18338;53.240;8.798;2023-07-09T13:22:00;6.85;;;5.28;;
31764;SDS011;18338;53.240;8.798;2023-07-09T13:24:28;5.15;;;4.75;;
31764;SDS011;18338;53.240;8.798;2023-07-09T13:27:04;5.07;;;4.72;;
31764;SDS011;18338;53.240;8.798;2023-07-09T13:29:33;4.85;;;4.43;;
31764;SDS011;18338;53.240;8.798;2023-07-09T13:32:00;5.03;;;4.72;;
31764;SDS011;18338;53.240;8.798;2023-07-09T13:34:27;5.93;;;4.90;;
31764;SDS011;18338;53.240;8.798;2023-07-09T13:36:57;4.80;;;4.40;;
31764;SDS011;18338;53.240;8.798;2023-07-09T13:39:24;4.57;;;4.28;;
31764;SDS011;18338;53.240;8.798;2023-07-09T13:41:54;4.80;;;4.40;;
31764;SDS011;18338;53.240;8.798;2023-07-09T13:44:26;8.65;;;5.53;;
31764;SDS011;18338;53.240;8.798;2023-07-09T13:46:55;5.47;;;5.07;;
31764;SDS011;18338;53.240;8.798;2023-07-09T13:49:23;5.13;;;4.72;;
31764;SDS011;18338;53.240;8.798;2023-07-09T13:51:55;5.13;;;4.72;;
31764;SDS011;18338;53.240;8.798;2023-07-09T13:54:28;5.32;;;4.93;;
31764;SDS011;18338;53.240;8.798;2023-07-09T13:57:02;5.05;;;4.65;;
31764;SDS011;18338;53.240;8.798;2023-07-09T13:59:29;5.03;;;4.57;;
31764;SDS011;18338;53.240;8.798;2023-07-09T14:01:56;4.63;;;4.32;;
31764;SDS011;18338;53.240;8.798;2023-07-09T14:04:26;5.65;;;4.85;;
31764;SDS011;18338;53.240;8.798;2023-07-09T14:06:54;4.85;;;4.43;;
31764;SDS011;18338;53.240;8.798;2023-07-09T14:09:22;4.95;;;4.65;;
31764;SDS011;18338;53.240;8.798;2023-07-09T14:11:51;5.10;;;4.68;;
31764;SDS011;18338;53.240;8.798;2023-07-09T14:14:21;5.40;;;5.00;;
31764;SDS011;18338;53.240;8.798;2023-07-09T14:16:49;5.30;;;4.90;;
31764;SDS011;18338;53.240;8.798;2023-07-09T14:19:21;5.25;;;4.85;;
31764;SDS011;18338;53.240;8.798;2023-07-09T14:21:49;4.90;;;4.50;;
31764;SDS011;18338;53.240;8.798;2023-07-09T14:26:49;12.27;;;5.18;;
31764;SDS011;18338;53.240;8.798;2023-07-09T14:29:17;5.20;;;4.80;;
31764;SDS011;18338;53.240;8.798;2023-07-09T14:31:45;5.22;;;4.72;;
31764;SDS011;18338;53.240;8.798;2023-07-09T14:34:22;5.88;;;5.38;;
31764;SDS011;18338;53.240;8.798;2023-07-09T14:36:58;5.03;;;4.57;;
31764;SDS011;18338;53.240;8.798;2023-07-09T14:39:27;5.15;;;4.35;;
31764;SDS011;18338;53.240;8.798;2023-07-09T14:41:54;5.63;;;5.22;;
31764;SDS011;18338;53.240;8.798;2023-07-09T14:44:23;5.55;;;5.05;;
31764;SDS011;18338;53.240;8.798;2023-07-09T14:46:53;5.38;;;4.88;;
31764;SDS011;18338;53.240;8.798;2023-07-09T14:49:21;5.40;;;5.00;;
31764;SDS011;18338;53.240;8.798;2023-07-09T14:51:49;4.95;;;4.57;;
31764;SDS011;18338;53.240;8.798;2023-07-09T14:56:45;6.93;;;5.10;;
31764;SDS011;18338;53.240;8.798;2023-07-09T14:59:15;5.75;;;5.10;;
31764;SDS011;18338;53.240;8.798;2023-07-09T15:01:41;5.65;;;4.90;;
31764;SDS011;18338;53.240;8.798;2023-07-09T15:06:59;7.57;;;5.22;;
31764;SDS011;18338;53.240;8.798;2023-07-09T15:09:27;5.18;;;4.68;;
31764;SDS011;18338;53.240;8.798;2023-07-09T15:11:55;5.35;;;4.93;;
31764;SDS011;18338;53.240;8.798;2023-07-09T15:14:24;5.95;;;5.10;;
31764;SDS011;18338;53.240;8.798;2023-07-09T15:16:54;5.25;;;4.85;;
31764;SDS011;18338;53.240;8.798;2023-07-09T15:19:26;5.78;;;5.28;;
31764;SDS011;18338;53.240;8.798;2023-07-09T15:21:53;5.93;;;5.22;;
31764;SDS011;18338;53.240;8.798;2023-07-09T15:24:28;5.35;;;4.95;;
31764;SDS011;18338;53.240;8.798;2023-07-09T15:26:58;5.45;;;5.03;;
31764;SDS011;18338;53.240;8.798;2023-07-09T15:29:29;5.18;;;4.75;;
31764;SDS011;18338;53.240;8.798;2023-07-09T15:31:57;6.15;;;5.65;;
31764;SDS011;18338;53.240;8.798;2023-07-09T15:34:25;5.70;;;5.20;;
31764;SDS011;18338;53.240;8.798;2023-07-09T15:36:52;6.32;;;5.10;;
31764;SDS011;18338;53.240;8.798;2023-07-09T15:39:21;6.75;;;5.18;;